Time,TemperatureF,DewpointF,PressureIn,WindDirection,WindDirectionDegrees,WindSpeedMPH,WindSpeedGustMPH,Humidity,HourlyPrecipIn,Conditions,Clouds,dailyrainin,SoftwareType,DateUTC
2013-01-26 00:09:00,33.6,33.1,29.47,NE,45,0.0,0.0,98,0.00,CLR,,0.00,WeatherDisplay:10.37,2013-01-26 00:09:00,
2013-01-26 00:24:00,33.6,33.1,29.47,ENE,78,0.0,0.0,98,0.00,CLR,,0.00,WeatherDisplay:10.37,2013-01-26 00:24:00,
2013-01-26 00:39:00,33.6,33.1,29.47,ESE,112,0.0,0.0,98,0.00,CLR,,0.00,WeatherDisplay:10.37,2013-01-26 00:39:00,
2013-01-26 00:54:00,33.6,33.1,29.47,ESE,112,0.0,0.0,98,0.00,CLR,,0.00,WeatherDisplay:10.37,2013-01-26 00:54:00,
2013-01-26 01:09:00,33.6,33.1,29.47,ESE,112,0.0,0.0,98,0.00,CLR,,0.00,WeatherDisplay:10.37,2013-01-26 01:09:00,
2013-01-26 01:24:00,33.8,33.3,29.47,NNW,338,6.0,6.0,98,0.00,CLR,,0.00,WeatherDisplay:10.37,2013-01-26 01:24:00,
2013-01-26 01:39:00,35.3,34.8,29.47,WNW,300,7.0,7.0,98,0.00,CLR,,0.00,WeatherDisplay:10.37,2013-01-26 01:39:00,
2013-01-26 01:54:00,36.0,35.5,29.47,WNW,290,5.0,9.0,98,0.00,CLR,,0.00,WeatherDisplay:10.37,2013-01-26 01:54:00,
2013-01-26 02:09:00,36.3,35.8,29.47,NW,305,3.0,10.0,98,0.00,CLR,,0.00,WeatherDisplay:10.37,2013-01-26 02:09:00,
2013-01-26 02:24:00,36.7,36.2,29.50,WNW,293,3.0,7.0,98,0.00,CLR,,0.00,WeatherDisplay:10.37,2013-01-26 02:24:00,
2013-01-26 02:39:00,36.9,36.3,29.50,West,278,2.0,6.0,98,0.00,CLR,,0.00,WeatherDisplay:10.37,2013-01-26 02:39:00,
2013-01-26 02:54:00,37.0,36.5,29.50,WNW,289,7.0,7.0,98,0.00,CLR,,0.00,WeatherDisplay:10.37,2013-01-26 02:54:00,
2013-01-26 03:09:00,37.0,36.3,29.50,WNW,288,5.0,14.0,97,0.00,CLR,,0.00,WeatherDisplay:10.37,2013-01-26 03:09:00,
2013-01-26 03:24:00,37.2,36.4,29.50,NW,308,10.0,13.0,97,0.00,CLR,,0.00,WeatherDisplay:10.37,2013-01-26 03:24:00,
2013-01-26 03:39:00,37.4,36.1,29.50,WNW,284,14.0,14.0,95,0.00,CLR,,0.00,WeatherDisplay:10.37,2013-01-26 03:39:00,
2013-01-26 03:54:00,37.2,35.9,29.50,WNW,292,6.0,14.0,95,0.00,CLR,,0.00,WeatherDisplay:10.37,2013-01-26 03:54:00,
2013-01-26 04:09:00,37.0,35.4,29.50,WNW,292,3.0,5.0,94,0.00,CLR,,0.00,WeatherDisplay:10.37,2013-01-26 04:09:00,
2013-01-26 04:24:00,36.3,34.2,29.50,SSW,197,0.0,3.0,92,0.00,CLR,,0.00,WeatherDisplay:10.37,2013-01-26 04:24:00,
2013-01-26 04:39:00,36.3,34.8,29.50,WNW,285,7.0,7.0,94,0.00,CLR,,0.00,WeatherDisplay:10.37,2013-01-26 04:39:00,
2013-01-26 04:54:00,36.1,34.3,29.50,West,277,1.0,7.0,93,0.00,CLR,,0.00,WeatherDisplay:10.37,2013-01-26 04:54:00,
2013-01-26 05:09:00,36.0,34.4,29.53,WNW,298,6.0,6.0,94,0.00,CLR,,0.00,WeatherDisplay:10.37,2013-01-26 05:09:00,
2013-01-26 05:24:00,35.8,34.2,29.53,WSW,256,1.0,6.0,94,0.00,CLR,,0.00,WeatherDisplay:10.37,2013-01-26 05:24:00,
2013-01-26 05:39:00,35.4,33.9,29.53,West,268,3.0,3.0,94,0.00,CLR,,0.00,WeatherDisplay:10.37,2013-01-26 05:39:00,
2013-01-26 05:54:00,35.6,34.0,29.53,West,263,6.0,6.0,94,0.00,CLR,,0.00,WeatherDisplay:10.37,2013-01-26 05:54:00,
2013-01-26 06:09:00,35.6,33.7,29.53,WNW,290,2.0,6.0,93,0.00,CLR,,0.00,WeatherDisplay:10.37,2013-01-26 06:09:00,
2013-01-26 06:24:00,35.6,33.8,29.53,SW,236,2.0,3.0,93,0.00,CLR,,0.00,WeatherDisplay:10.37,2013-01-26 06:24:00,
2013-01-26 06:39:00,35.6,33.8,29.53,West,271,2.0,9.0,93,0.00,CLR,,0.00,WeatherDisplay:10.37,2013-01-26 06:39:00,
2013-01-26 06:54:00,35.4,33.9,29.56,WNW,285,5.0,5.0,94,0.00,CLR,,0.00,WeatherDisplay:10.37,2013-01-26 06:54:00,
2013-01-26 07:09:00,35.4,33.9,29.56,NW,305,2.0,5.0,94,0.00,CLR,,0.00,WeatherDisplay:10.37,2013-01-26 07:09:00,
2013-01-26 07:24:00,35.2,33.4,29.56,WSW,248,1.0,3.0,93,0.00,CLR,,0.00,WeatherDisplay:10.37,2013-01-26 07:24:00,
2013-01-26 07:39:00,35.1,33.5,29.56,NW,307,3.0,5.0,94,0.00,CLR,,0.00,WeatherDisplay:10.37,2013-01-26 07:39:00,
2013-01-26 07:54:00,35.1,33.5,29.56,NNW,338,3.0,4.0,94,0.00,CLR,,0.00,WeatherDisplay:10.37,2013-01-26 07:54:00,
2013-01-26 08:09:00,34.9,33.3,29.59,NNW,331,0.0,3.0,94,0.00,CLR,,0.00,WeatherDisplay:10.37,2013-01-26 08:09:00,
2013-01-26 08:24:00,35.4,34.1,29.59,WSW,250,3.0,4.0,95,0.00,CLR,,0.00,WeatherDisplay:10.37,2013-01-26 08:24:00,
2013-01-26 08:39:00,35.1,33.8,29.56,NNW,336,1.0,3.0,95,0.00,CLR,,0.00,WeatherDisplay:10.37,2013-01-26 08:39:00,
2013-01-26 08:54:00,34.7,33.2,29.56,ENE,74,0.0,1.0,94,0.00,CLR,,0.00,WeatherDisplay:10.37,2013-01-26 08:54:00,
2013-01-26 09:09:00,34.7,33.4,29.59,West,264,1.0,2.0,95,0.00,CLR,,0.00,WeatherDisplay:10.37,2013-01-26 09:09:00,
2013-01-26 09:24:00,34.9,33.6,29.59,West,276,2.0,5.0,95,0.00,CLR,,0.00,WeatherDisplay:10.37,2013-01-26 09:24:00,
2013-01-26 09:39:00,35.1,34.0,29.59,West,276,2.0,6.0,96,0.00,CLR,,0.00,WeatherDisplay:10.37,2013-01-26 09:39:00,
2013-01-26 09:54:00,35.8,34.8,29.62,NW,305,0.0,3.0,96,0.00,CLR,,0.00,WeatherDisplay:10.37,2013-01-26 09:54:00,
2013-01-26 10:09:00,36.5,35.5,29.65,SSW,208,0.0,1.0,96,0.00,CLR,,0.00,WeatherDisplay:10.37,2013-01-26 10:09:00,
2013-01-26 10:24:00,36.7,35.6,29.62,SW,228,3.0,6.0,96,0.00,CLR,,0.00,WeatherDisplay:10.37,2013-01-26 10:24:00,
2013-01-26 10:39:00,37.3,36.3,29.62,South,173,0.0,4.0,96,0.00,CLR,,0.00,WeatherDisplay:10.37,2013-01-26 10:39:00,
2013-01-26 10:54:00,37.8,36.7,29.62,SW,229,5.0,5.0,96,0.00,CLR,,0.00,WeatherDisplay:10.37,2013-01-26 10:54:00,
2013-01-26 11:09:00,37.9,36.6,29.62,WSW,251,2.0,5.0,95,0.00,CLR,,0.00,WeatherDisplay:10.37,2013-01-26 11:09:00,
2013-01-26 11:24:00,38.1,36.8,29.62,SSW,204,2.0,3.0,95,0.00,CLR,,0.00,WeatherDisplay:10.37,2013-01-26 11:24:00,
2013-01-26 11:39:00,38.3,37.0,29.62,WSW,248,2.0,3.0,95,0.00,,,0.04,WeatherDisplay:10.37,2013-01-26 11:39:00,
2013-01-26 11:54:00,38.8,37.5,29.59,SSW,201,6.0,8.0,95,0.00,CLR,,0.04,WeatherDisplay:10.37,2013-01-26 11:54:00,
2013-01-26 12:09:00,40.1,38.8,29.59,SW,234,3.0,8.0,95,0.00,CLR,,0.04,WeatherDisplay:10.37,2013-01-26 12:09:00,
2013-01-26 12:24:00,40.3,38.7,29.59,South,173,3.0,6.0,94,0.00,CLR,,0.04,WeatherDisplay:10.37,2013-01-26 12:24:00,
2013-01-26 12:39:00,40.5,38.6,29.59,WSW,248,1.0,4.0,93,0.00,CLR,,0.04,WeatherDisplay:10.37,2013-01-26 12:39:00,
2013-01-26 12:54:00,41.0,38.6,29.59,WSW,255,5.0,7.0,91,0.00,CLR,,0.04,WeatherDisplay:10.37,2013-01-26 12:54:00,
2013-01-26 13:09:00,41.5,38.5,29.56,SSW,197,6.0,8.0,89,0.00,CLR,,0.04,WeatherDisplay:10.37,2013-01-26 13:09:00,
2013-01-26 13:24:00,41.5,37.7,29.56,South,183,5.0,9.0,86,0.00,CLR,,0.08,WeatherDisplay:10.37,2013-01-26 13:24:00,
2013-01-26 13:39:00,41.2,37.0,29.56,SW,229,2.0,6.0,85,0.00,CLR,,0.08,WeatherDisplay:10.37,2013-01-26 13:39:00,
2013-01-26 13:54:00,41.2,36.4,29.56,SSW,194,5.0,6.0,83,0.04,RA,,0.12,WeatherDisplay:10.37,2013-01-26 13:54:00,
2013-01-26 14:09:00,41.0,36.2,29.56,South,183,2.0,6.0,83,0.00,CLR,,0.12,WeatherDisplay:10.37,2013-01-26 14:09:00,
2013-01-26 14:24:00,40.8,36.1,29.53,South,183,0.0,7.0,83,0.00,CLR,,0.12,WeatherDisplay:10.37,2013-01-26 14:24:00,
2013-01-26 14:39:00,40.6,36.2,29.53,South,190,6.0,6.0,84,0.04,RA,,0.16,WeatherDisplay:10.37,2013-01-26 14:39:00,
2013-01-26 14:54:00,40.5,36.3,29.50,SSW,206,5.0,6.0,85,0.00,CLR,,0.16,WeatherDisplay:10.37,2013-01-26 14:54:00,
2013-01-26 15:09:00,40.2,36.4,29.50,South,185,5.0,6.0,86,0.00,CLR,,0.16,WeatherDisplay:10.37,2013-01-26 15:09:00,
2013-01-26 15:24:00,40.1,36.5,29.50,South,180,5.0,5.0,87,0.00,CLR,,0.20,WeatherDisplay:10.37,2013-01-26 15:24:00,
2013-01-26 15:39:00,39.9,36.7,29.50,SW,217,6.0,6.0,88,0.00,CLR,,0.20,WeatherDisplay:10.37,2013-01-26 15:39:00,
2013-01-26 15:54:00,39.5,35.9,29.49,South,190,1.0,6.0,87,0.00,RA,,0.24,WeatherDisplay:10.37,2013-01-26 15:54:00,
2013-01-26 16:09:00,39.2,35.7,29.47,South,182,0.0,6.0,87,0.00,CLR,,0.24,WeatherDisplay:10.37,2013-01-26 16:09:00,
2013-01-26 16:24:00,38.8,35.6,29.44,North,4,0.0,0.0,88,0.00,CLR,,0.24,WeatherDisplay:10.37,2013-01-26 16:24:00,
2013-01-26 16:39:00,38.7,35.7,29.44,ESE,107,2.0,4.0,89,0.00,RA,,0.28,WeatherDisplay:10.37,2013-01-26 16:39:00,
2013-01-26 16:54:00,38.7,35.7,29.44,ESE,107,3.0,6.0,89,0.00,CLR,,0.28,WeatherDisplay:10.37,2013-01-26 16:54:00,
2013-01-26 17:09:00,38.5,36.1,29.41,East,89,2.0,6.0,91,0.00,CLR,,0.28,WeatherDisplay:10.37,2013-01-26 17:09:00,
2013-01-26 17:24:00,38.7,36.5,29.38,ESE,117,6.0,6.0,92,0.00,,,0.31,WeatherDisplay:10.37,2013-01-26 17:24:00,
2013-01-26 17:39:00,38.5,36.6,29.38,East,82,3.0,6.0,93,0.00,RA,,0.35,WeatherDisplay:10.37,2013-01-26 17:39:00,
2013-01-26 17:54:00,38.7,37.4,29.38,SE,129,3.0,6.0,95,0.00,CLR,,0.35,WeatherDisplay:10.37,2013-01-26 17:54:00,
2013-01-26 18:09:00,38.7,37.4,29.35,ENE,60,3.0,6.0,95,0.00,RA,,0.39,WeatherDisplay:10.37,2013-01-26 18:09:00,
2013-01-26 18:24:00,38.5,37.2,29.35,NE,37,2.0,6.0,95,0.00,RA,,0.44,WeatherDisplay:10.37,2013-01-26 18:24:00,
2013-01-26 18:39:00,38.5,37.4,29.32,ENE,65,3.0,4.0,96,0.00,RA,,0.48,WeatherDisplay:10.37,2013-01-26 18:39:00,
2013-01-26 18:54:00,38.5,37.4,29.32,NE,40,1.0,6.0,96,0.00,RA,,0.52,WeatherDisplay:10.37,2013-01-26 18:54:00,
2013-01-26 19:09:00,37.9,36.9,29.29,NNE,32,3.0,6.0,96,0.00,RA,,0.56,WeatherDisplay:10.37,2013-01-26 19:09:00,
2013-01-26 19:24:00,37.6,36.5,29.26,NNE,24,2.0,6.0,96,0.00,CLR,,0.61,WeatherDisplay:10.37,2013-01-26 19:24:00,
2013-01-26 19:39:00,37.6,36.5,29.26,NNE,25,3.0,4.0,96,0.00,CLR,,0.61,WeatherDisplay:10.37,2013-01-26 19:39:00,
2013-01-26 19:54:00,37.6,36.8,29.24,NE,47,1.0,4.0,97,0.04,RA,,0.73,WeatherDisplay:10.37,2013-01-26 19:54:00,
2013-01-26 20:09:00,37.8,37.0,29.24,NNE,30,3.0,4.0,97,0.00,RA,,0.81,WeatherDisplay:10.37,2013-01-26 20:09:00,
2013-01-26 20:24:00,37.9,37.2,29.20,ENE,71,2.0,4.0,97,0.00,RA,,0.90,WeatherDisplay:10.37,2013-01-26 20:24:00,
2013-01-26 20:39:00,37.9,37.2,29.20,NNE,28,2.0,4.0,97,0.00,CLR,,0.90,WeatherDisplay:10.37,2013-01-26 20:39:00,
2013-01-26 20:54:00,37.9,37.2,29.18,NE,41,2.0,5.0,97,0.00,CLR,,0.90,WeatherDisplay:10.37,2013-01-26 20:54:00,
2013-01-26 21:09:00,38.1,37.6,29.18,NE,45,3.0,6.0,98,0.00,CLR,,0.90,WeatherDisplay:10.37,2013-01-26 21:09:00,
2013-01-26 21:24:00,39.7,39.2,29.15,NE,44,5.0,5.0,98,0.04,RA,,1.03,WeatherDisplay:10.37,2013-01-26 21:24:00,
2013-01-26 21:39:00,40.2,39.7,29.15,NE,45,3.0,5.0,98,0.04,RA,,1.11,WeatherDisplay:10.37,2013-01-26 21:39:00,
2013-01-26 21:54:00,40.5,39.9,29.12,NNE,29,1.0,3.0,98,0.00,RA,,1.15,WeatherDisplay:10.37,2013-01-26 21:54:00,
2013-01-26 22:09:00,40.8,40.2,29.09,NNE,22,3.0,5.0,98,0.00,CLR,,1.15,WeatherDisplay:10.37,2013-01-26 22:09:00,
2013-01-26 22:24:00,40.5,39.9,29.09,NNE,30,3.0,3.0,98,0.00,,,1.19,WeatherDisplay:10.37,2013-01-26 22:24:00,
2013-01-26 22:39:00,41.2,40.7,29.06,NNE,27,3.0,3.0,98,0.00,,,1.24,WeatherDisplay:10.37,2013-01-26 22:39:00,
2013-01-26 22:54:00,42.4,41.9,29.04,South,181,2.0,8.0,98,0.04,RA,,1.28,WeatherDisplay:10.37,2013-01-26 22:54:00,
2013-01-26 23:09:00,43.5,43.0,29.03,SE,143,2.0,6.0,98,0.00,CLR,,1.28,WeatherDisplay:10.37,2013-01-26 23:09:00,
2013-01-26 23:24:00,44.1,43.5,29.00,SSW,201,6.0,6.0,98,0.00,,,1.32,WeatherDisplay:10.37,2013-01-26 23:24:00,
2013-01-26 23:39:00,44.6,44.1,29.00,SSW,194,1.0,13.0,98,0.00,CLR,,1.32,WeatherDisplay:10.37,2013-01-26 23:39:00,
2013-01-26 23:54:00,45.5,45.0,28.97,SSW,202,6.0,11.0,98,0.00,RA,,0.00,WeatherDisplay:10.37,2013-01-26 23:54:00,